Jeffrey G Stover — WDF2069 — position and weather

sailwx.info

Track history (hours):
 
Tides and Currents Weather Stations Pressure Air Temp Water Temp Dewpoint Dewpoint Depression Visibility Wind Speed Wind Dir Waves Ship Positions

Jeffrey G Stover

Owner: AEP River Operations LLC, Chesterfield, MO. More information available from US FCC via Universal Licensing System and Coast Guard Vessel Documentation Center.

Last reported at 2015-Jan-29 08:23 UTC. Time now 2015-Jan-31 08:39 UTC.
Position N 30°38' W 091°18'.

Length 64 m; draft 3.1 m.

Type: Tow > 200 m length. MMSI: 367424480.

Date/timePositionNaut miles runAvg speedWind from/ knotsBaromVisibWave heightAir tempDewpointWater temp
2015-Jan-29 08:23N 30°38' W 091°18'6 3.4
2015-Jan-29 06:33N 30°33' W 091°14'2 2.2
2015-Jan-29 05:27N 30°30' W 091°15'4 3.1
2015-Jan-29 04:11N 30°28' W 091°12'14 0.9
2015-Jan-28 13:11N 30°14' W 091°08'3 4.7
2015-Jan-28 12:33N 30°12' W 091°10'3 3.1
2015-Jan-28 11:33N 30°12' W 091°06'6 3.1
2015-Jan-28 09:33N 30°08' W 091°02'4 4.1
2015-Jan-28 08:33N 30°07' W 090°57'10 2.5
2015-Jan-28 04:31N 29°59' W 090°49'1 0.7
2015-Jan-28 03:33N 29°59' W 090°49'2 1.5
2015-Jan-28 02:32N 30°00' W 090°47'0 0.1
2015-Jan-28 01:29N 30°00' W 090°48'  
Track history (hours):
 
Tides and Currents Weather Stations Pressure Air Temp Water Temp Dewpoint Dewpoint Depression Visibility Wind Speed Wind Dir Waves Ship Positions

Jeffrey G Stover

Owner: AEP River Operations LLC, Chesterfield, MO. More information available from US FCC via Universal Licensing System and Coast Guard Vessel Documentation Center.

Last reported at 2015-Jan-29 08:23 UTC. Time now 2015-Jan-31 08:39 UTC.
Position N 30°38' W 091°18'.

Length 64 m; draft 3.1 m.

Type: Tow > 200 m length. MMSI: 367424480.

Date/timePositionNaut miles runAvg speedWind from/ knotsBaromVisibWave heightAir tempDewpointWater temp
2015-Jan-29 08:23N 30°38' W 091°18'6 3.4
2015-Jan-29 06:33N 30°33' W 091°14'2 2.2
2015-Jan-29 05:27N 30°30' W 091°15'4 3.1
2015-Jan-29 04:11N 30°28' W 091°12'14 0.9
2015-Jan-28 13:11N 30°14' W 091°08'3 4.7
2015-Jan-28 12:33N 30°12' W 091°10'3 3.1
2015-Jan-28 11:33N 30°12' W 091°06'6 3.1
2015-Jan-28 09:33N 30°08' W 091°02'4 4.1
2015-Jan-28 08:33N 30°07' W 090°57'10 2.5
2015-Jan-28 04:31N 29°59' W 090°49'1 0.7
2015-Jan-28 03:33N 29°59' W 090°49'2 1.5
2015-Jan-28 02:32N 30°00' W 090°47'0 0.1
2015-Jan-28 01:29N 30°00' W 090°48'  

Dump ship's entire track history